Terminal Aerodrome Forecast
Issued by NWS Norman, OK

Home | Current Version | Previous Version | Text Only | Print | Product List | Glossary On
Versions: 1 2 3 4 5 6 7 8 9 10 11 12
000
FTUS44 KOUN 161735
TAFOKC
TAF
KOKC 161735Z 1618/1718 19018G28KT P6SM SCT150
     FM170000 18014KT P6SM VCSH SCT050 BKN100
      TEMPO 1703/1707 5SM -RA OVC040
     FM170700 17010KT 4SM BR BKN012
     FM171200 17008KT 3SM BR OVC007=

USA.gov is the U.S. government's official web portal to all federal, state and local government web resources and services.